createdAt,value
2022-12-05T00:00:27.106Z,47.22
2022-12-05T00:02:32.466Z,52.13
2022-12-05T00:04:37.620Z,48.75
2022-12-05T00:06:46.484Z,48.33
2022-12-05T00:08:52.368Z,46.13
2022-12-05T00:10:57.641Z,48.15
2022-12-05T00:13:02.905Z,45.88
2022-12-05T00:15:13.186Z,42.38
2022-12-05T00:17:18.159Z,47.63
2022-12-05T00:19:23.299Z,47.40
2022-12-05T00:21:31.920Z,47.13
2022-12-05T00:23:39.807Z,44.55
2022-12-05T00:25:45.977Z,44.17
2022-12-05T00:27:50.906Z,44.38
2022-12-05T00:29:56.252Z,41.42
2022-12-05T00:32:01.751Z,44.13
2022-12-05T00:34:07.308Z,45.40
2022-12-05T00:36:16.466Z,49.45
2022-12-05T00:38:21.468Z,40.38
2022-12-05T00:40:29.412Z,44.67
2022-12-05T00:42:34.356Z,43.20
2022-12-05T00:44:39.294Z,44.22
2022-12-05T00:46:44.560Z,46.20
2022-12-05T00:48:50.048Z,44.60
2022-12-05T00:51:04.273Z,42.05
2022-12-05T00:53:09.996Z,40.58
2022-12-05T00:55:14.943Z,42.67
2022-12-05T00:57:22.582Z,43.33
2022-12-05T00:59:27.681Z,45.35
2022-12-05T01:01:35.778Z,47.60
2022-12-05T01:03:41.955Z,44.55
2022-12-05T01:05:46.902Z,42.35
2022-12-05T01:07:51.913Z,40.10
2022-12-05T01:09:57.676Z,43.30
2022-12-05T01:12:02.748Z,42.90
2022-12-05T01:14:10.433Z,43.10
2022-12-05T01:16:19.732Z,45.92
2022-12-05T01:18:25.464Z,42.53
2022-12-05T01:20:30.659Z,41.38
2022-12-05T01:22:35.954Z,42.47
2022-12-05T01:24:41.283Z,41.40
2022-12-05T01:26:47.419Z,46.25
2022-12-05T01:28:54.480Z,35.20
2022-12-05T01:31:06.606Z,36.70
2022-12-05T01:33:13.077Z,38.45
2022-12-05T01:35:18.543Z,41.47
2022-12-05T01:37:23.702Z,37.97
2022-12-05T01:39:28.824Z,35.58
2022-12-05T01:41:36.827Z,33.67
2022-12-05T01:43:59.871Z,34.25
2022-12-05T01:46:09.341Z,35.35
2022-12-05T01:48:21.141Z,36.97
2022-12-05T01:50:26.583Z,40.95
2022-12-05T01:52:34.106Z,37.10
2022-12-05T01:54:41.051Z,36.72
2022-12-05T01:56:52.824Z,40.63
2022-12-05T01:59:00.089Z,42.35
2022-12-05T02:01:08.050Z,41.15
2022-12-05T02:03:21.404Z,41.95
2022-12-05T02:05:31.096Z,50.17
2022-12-05T02:07:37.872Z,44.30
2022-12-05T02:09:42.874Z,45.85
2022-12-05T02:11:55.428Z,40.97
2022-12-05T02:14:22.403Z,40.45
2022-12-05T02:16:48.966Z,39.42
2022-12-05T02:19:12.764Z,37.17
2022-12-05T02:21:57.408Z,42.40
2022-12-05T02:24:35.518Z,46.88
2022-12-05T02:27:04.424Z,40.55
2022-12-05T02:30:05.021Z,44.95
2022-12-05T02:32:17.464Z,42.72
2022-12-05T02:34:31.850Z,44.00
2022-12-05T02:36:43.542Z,38.38
2022-12-05T02:38:58.919Z,41.97
2022-12-05T02:41:15.222Z,40.63
2022-12-05T02:43:25.784Z,40.90
2022-12-05T02:45:37.821Z,40.90
2022-12-05T02:47:49.861Z,38.60
2022-12-05T02:49:56.768Z,37.72
2022-12-05T02:52:04.086Z,35.95
2022-12-05T02:54:16.002Z,40.65
2022-12-05T02:56:22.438Z,41.45
2022-12-05T02:58:33.996Z,42.03
2022-12-05T03:00:46.644Z,38.85
2022-12-05T03:02:54.187Z,40.60
2022-12-05T03:05:17.756Z,39.13
2022-12-05T03:07:26.710Z,38.42
2022-12-05T03:09:38.092Z,36.33
2022-12-05T03:11:50.376Z,38.25
2022-12-05T03:13:58.803Z,40.87
2022-12-05T03:16:15.428Z,36.22
2022-12-05T03:18:26.942Z,34.60
2022-12-05T03:20:36.696Z,32.00
2022-12-05T03:22:49.054Z,32.17
2022-12-05T03:24:54.282Z,33.33
2022-12-05T03:27:08.930Z,34.80
2022-12-05T03:29:29.658Z,35.03
2022-12-05T03:31:47.461Z,35.30
2022-12-05T03:33:57.945Z,35.13
2022-12-05T03:36:09.355Z,37.38
2022-12-05T03:38:18.755Z,34.30
2022-12-05T03:40:35.096Z,37.22
2022-12-05T03:42:49.534Z,33.83
2022-12-05T03:45:00.329Z,33.50
2022-12-05T03:47:14.543Z,32.95
2022-12-05T03:49:33.613Z,33.15
2022-12-05T03:51:46.338Z,31.77
2022-12-05T03:53:56.787Z,30.85
2022-12-05T03:56:08.252Z,36.92
2022-12-05T03:58:20.942Z,32.70
2022-12-05T04:00:27.678Z,33.20
2022-12-05T04:02:45.740Z,33.83
2022-12-05T04:04:58.032Z,29.00
2022-12-05T04:07:07.457Z,30.70
2022-12-05T04:09:18.598Z,31.33
2022-12-05T04:11:28.799Z,29.20
2022-12-05T04:13:37.683Z,33.83
2022-12-05T04:15:55.739Z,33.25
2022-12-05T04:18:04.003Z,32.55
2022-12-05T04:20:41.082Z,24.75
2022-12-05T04:22:47.238Z,32.80
2022-12-05T04:25:05.583Z,32.53
2022-12-05T04:27:28.320Z,33.92
2022-12-05T04:29:39.849Z,33.80
2022-12-05T04:31:50.343Z,36.63
2022-12-05T04:34:05.263Z,36.33
2022-12-05T04:36:16.973Z,35.63
2022-12-05T04:38:28.272Z,40.72
2022-12-05T04:40:39.978Z,34.80
2022-12-05T04:42:46.622Z,33.28
2022-12-05T04:44:56.179Z,33.08
2022-12-05T04:47:06.266Z,33.22
2022-12-05T04:49:18.431Z,34.85
2022-12-05T04:51:27.078Z,30.17
2022-12-05T04:53:34.051Z,37.38
2022-12-05T04:55:42.865Z,36.83
2022-12-05T04:57:55.912Z,37.58
2022-12-05T05:00:01.076Z,37.03
2022-12-05T05:02:11.348Z,31.58
2022-12-05T05:04:24.713Z,33.53
2022-12-05T05:06:30.695Z,34.08
2022-12-05T05:08:36.142Z,32.28
2022-12-05T05:10:49.900Z,35.60
2022-12-05T05:12:55.032Z,57.05
2022-12-05T05:14:59.976Z,31.67
2022-12-05T05:17:05.786Z,33.08
2022-12-05T05:19:13.473Z,31.42
2022-12-05T05:21:24.808Z,35.58
2022-12-05T05:23:29.805Z,38.05
2022-12-05T05:25:34.785Z,32.22
2022-12-05T05:27:39.745Z,35.35
2022-12-05T05:29:44.966Z,33.35
2022-12-05T05:31:50.098Z,36.17
2022-12-05T05:33:57.684Z,33.90
2022-12-05T05:36:06.995Z,31.80
2022-12-05T05:38:14.530Z,32.13
2022-12-05T05:40:20.332Z,31.40
2022-12-05T05:42:25.295Z,32.97
2022-12-05T05:44:30.590Z,33.22
2022-12-05T05:46:38.790Z,29.70
2022-12-05T05:48:44.147Z,34.10
2022-12-05T05:50:49.100Z,27.83
2022-12-05T05:52:54.097Z,35.08
2022-12-05T05:55:01.640Z,28.88
2022-12-05T05:57:06.834Z,32.28
2022-12-05T05:59:12.861Z,33.92
2022-12-05T06:01:21.593Z,30.48
2022-12-05T06:03:26.642Z,34.08
2022-12-05T06:05:31.703Z,31.42
2022-12-05T06:07:36.710Z,31.75
2022-12-05T06:09:42.247Z,34.35
2022-12-05T06:11:49.868Z,30.08
2022-12-05T06:13:55.380Z,33.17
2022-12-05T06:16:00.526Z,29.83
2022-12-05T06:18:05.512Z,29.70
2022-12-05T06:20:12.067Z,30.15
2022-12-05T06:22:17.041Z,28.00
2022-12-05T06:24:21.972Z,30.60
2022-12-05T06:26:27.056Z,27.27
2022-12-05T06:28:35.275Z,25.35
2022-12-05T06:30:41.610Z,39.53
2022-12-05T06:32:47.126Z,43.90
2022-12-05T06:34:52.145Z,34.97
2022-12-05T06:36:57.125Z,26.00
2022-12-05T06:39:03.363Z,26.50
2022-12-05T06:41:09.659Z,27.67
2022-12-05T06:43:14.944Z,26.00
2022-12-05T06:45:22.830Z,22.63
2022-12-05T06:47:27.796Z,21.55
2022-12-05T06:49:36.366Z,24.05
2022-12-05T06:51:43.368Z,21.23
2022-12-05T06:53:48.512Z,20.52
2022-12-05T06:56:01.580Z,20.50
2022-12-05T06:58:06.896Z,23.10
2022-12-05T07:00:26.637Z,22.15
2022-12-05T07:02:34.655Z,23.83
2022-12-05T07:04:39.669Z,22.20
2022-12-05T07:06:50.508Z,24.17
2022-12-05T07:08:56.460Z,29.73
2022-12-05T07:11:02.248Z,25.67
2022-12-05T07:13:08.580Z,24.35
2022-12-05T07:15:15.076Z,26.73
2022-12-05T07:17:20.853Z,26.75
2022-12-05T07:19:28.377Z,25.30
2022-12-05T07:21:33.712Z,30.98
2022-12-05T07:23:39.088Z,34.75
2022-12-05T07:25:44.405Z,29.00
2022-12-05T07:27:49.488Z,24.08
2022-12-05T07:29:54.633Z,29.95
2022-12-05T07:31:59.710Z,28.10
2022-12-05T07:34:04.682Z,33.03
2022-12-05T07:36:16.342Z,33.60
2022-12-05T07:38:21.259Z,37.00
2022-12-05T07:40:26.222Z,34.05
2022-12-05T07:42:31.142Z,32.67
2022-12-05T07:44:36.279Z,34.72
2022-12-05T07:46:42.234Z,33.33
2022-12-05T07:48:48.084Z,40.17
2022-12-05T07:50:53.220Z,32.15
2022-12-05T07:53:01.143Z,33.40
2022-12-05T07:55:07.148Z,39.42
2022-12-05T07:57:12.588Z,36.22
2022-12-05T07:59:17.548Z,41.85
2022-12-05T08:01:26.351Z,34.00
2022-12-05T08:03:31.335Z,38.92
2022-12-05T08:05:37.760Z,32.00
2022-12-05T08:07:43.341Z,34.80
2022-12-05T08:09:50.893Z,42.42
2022-12-05T08:11:55.861Z,33.65
2022-12-05T08:14:01.503Z,40.75
2022-12-05T08:16:08.172Z,32.90
2022-12-05T08:18:13.154Z,35.05
2022-12-05T08:20:18.500Z,38.00
2022-12-05T08:22:23.426Z,34.65
2022-12-05T08:24:28.784Z,31.05
2022-12-05T08:26:38.699Z,35.25
2022-12-05T08:28:45.084Z,35.13
2022-12-05T08:30:50.117Z,39.45
2022-12-05T08:32:55.133Z,39.05
2022-12-05T08:35:00.117Z,44.30
2022-12-05T08:37:05.286Z,43.22
2022-12-05T08:39:16.015Z,38.75
2022-12-05T08:41:21.774Z,39.70
2022-12-05T08:43:29.339Z,38.13
2022-12-05T08:45:34.286Z,34.35
2022-12-05T08:47:39.490Z,37.22
2022-12-05T08:49:44.443Z,36.10
2022-12-05T08:51:49.614Z,44.75
2022-12-05T08:53:56.413Z,39.95
2022-12-05T08:56:04.200Z,39.63
2022-12-05T08:58:10.335Z,38.90
2022-12-05T09:00:19.844Z,37.55
2022-12-05T09:02:24.945Z,39.80
2022-12-05T09:04:29.931Z,41.47
2022-12-05T09:06:36.565Z,39.65
2022-12-05T09:08:42.309Z,40.10
2022-12-05T09:10:47.284Z,41.35
2022-12-05T09:12:53.136Z,40.40
2022-12-05T09:14:59.077Z,37.55
2022-12-05T09:17:07.790Z,41.90
2022-12-05T09:19:16.600Z,44.90
2022-12-05T09:21:24.302Z,41.47
2022-12-05T09:23:29.272Z,37.00
2022-12-05T09:25:34.236Z,39.33
2022-12-05T09:27:39.734Z,39.97
2022-12-05T09:29:45.038Z,40.15
2022-12-05T09:31:54.260Z,38.97
2022-12-05T09:34:01.880Z,39.33
2022-12-05T09:36:08.136Z,35.63
2022-12-05T09:38:13.120Z,45.78
2022-12-05T09:40:20.465Z,44.15
2022-12-05T09:42:38.801Z,38.17
2022-12-05T09:45:07.192Z,38.08
2022-12-05T09:47:26.339Z,42.42
2022-12-05T09:49:35.849Z,37.80
2022-12-05T09:51:52.192Z,36.78
2022-12-05T09:54:00.341Z,40.72
2022-12-05T09:56:09.227Z,42.60
2022-12-05T09:58:25.247Z,41.08
2022-12-05T10:00:33.336Z,41.60
2022-12-05T10:02:53.281Z,38.80
2022-12-05T10:05:08.120Z,41.70
2022-12-05T10:07:20.499Z,39.03
2022-12-05T10:09:46.884Z,40.60
2022-12-05T10:12:01.230Z,37.25
2022-12-05T10:14:16.235Z,36.15
2022-12-05T10:16:28.811Z,34.85
2022-12-05T10:18:41.252Z,30.65
2022-12-05T10:20:54.797Z,34.55
2022-12-05T10:23:06.143Z,37.38
2022-12-05T10:25:15.538Z,31.88
2022-12-05T10:27:26.580Z,30.98
2022-12-05T10:29:36.346Z,33.13
2022-12-05T10:31:43.935Z,28.55
2022-12-05T10:33:54.854Z,31.88
2022-12-05T10:36:02.692Z,33.58
2022-12-05T10:38:10.339Z,31.00
2022-12-05T10:40:17.035Z,30.95
2022-12-05T10:42:31.988Z,32.58
2022-12-05T10:44:37.624Z,32.03
2022-12-05T10:46:43.247Z,26.95
2022-12-05T10:48:48.509Z,29.83
2022-12-05T10:50:57.474Z,25.50
2022-12-05T10:53:08.048Z,30.05
2022-12-05T10:55:20.837Z,27.85
2022-12-05T10:57:30.477Z,29.38
2022-12-05T10:59:50.251Z,27.45
2022-12-05T11:01:59.287Z,30.23
2022-12-05T11:04:20.749Z,29.33
2022-12-05T11:06:30.490Z,28.80
2022-12-05T11:09:03.733Z,30.25
2022-12-05T11:11:07.285Z,27.33
2022-12-05T11:13:19.544Z,28.88
2022-12-05T11:15:28.064Z,31.17
2022-12-05T11:17:37.907Z,31.67
2022-12-05T11:19:43.298Z,30.95
2022-12-05T11:21:48.518Z,25.63
2022-12-05T11:23:56.619Z,31.10
2022-12-05T11:26:02.020Z,24.60
2022-12-05T11:28:36.470Z,24.67
2022-12-05T11:32:46.349Z,24.55
2022-12-05T11:34:59.703Z,23.40
2022-12-05T11:37:12.445Z,22.63
2022-12-05T11:39:20.099Z,17.95
2022-12-05T11:41:48.058Z,21.08
2022-12-05T11:44:31.530Z,23.25
2022-12-05T11:46:54.147Z,25.95
2022-12-05T11:49:16.758Z,23.63
2022-12-05T11:51:40.139Z,20.25
2022-12-05T11:54:48.776Z,25.30
2022-12-05T11:56:59.779Z,24.50
2022-12-05T11:59:37.897Z,22.65
2022-12-05T12:01:56.276Z,25.92
2022-12-05T12:04:29.646Z,24.05
2022-12-05T12:06:42.126Z,23.00
2022-12-05T12:09:05.914Z,18.95
2022-12-05T12:11:21.859Z,20.92
2022-12-05T12:13:48.121Z,26.23
2022-12-05T12:16:08.494Z,22.80
2022-12-05T12:18:37.504Z,24.30
2022-12-05T12:21:00.248Z,25.90
2022-12-05T12:23:29.343Z,22.92
2022-12-05T12:25:46.078Z,23.50
2022-12-05T12:28:07.594Z,23.45
2022-12-05T12:30:23.021Z,26.75
2022-12-05T12:32:41.394Z,25.02
2022-12-05T12:35:21.761Z,30.15
2022-12-05T12:37:39.002Z,32.92
2022-12-05T12:39:53.842Z,27.50
2022-12-05T12:42:32.806Z,28.10
2022-12-05T12:45:24.797Z,30.27
2022-12-05T12:47:43.483Z,31.73
2022-12-05T12:50:04.205Z,31.35
2022-12-05T12:52:17.209Z,30.38
2022-12-05T12:55:13.792Z,35.55
2022-12-05T12:57:26.928Z,33.10
2022-12-05T12:59:54.472Z,34.55
2022-12-05T13:02:06.024Z,36.15
2022-12-05T13:04:18.835Z,38.75
2022-12-05T13:06:29.400Z,37.78
2022-12-05T13:08:43.061Z,36.92
2022-12-05T13:10:50.757Z,40.53
2022-12-05T13:12:58.647Z,42.58
2022-12-05T13:15:08.451Z,37.17
2022-12-05T13:17:21.743Z,38.97
2022-12-05T13:19:37.461Z,42.88
2022-12-05T13:21:42.623Z,39.78
2022-12-05T13:23:55.020Z,41.35
2022-12-05T13:26:03.440Z,46.85
2022-12-05T13:28:28.335Z,48.17
2022-12-05T13:30:54.558Z,47.45
2022-12-05T13:33:02.405Z,48.65
2022-12-05T13:35:35.061Z,42.58
2022-12-05T13:38:02.463Z,43.17
2022-12-05T13:40:22.479Z,40.30
2022-12-05T13:42:32.031Z,42.40
2022-12-05T13:44:43.323Z,36.40
2022-12-05T13:46:52.674Z,38.35
2022-12-05T13:49:07.118Z,33.60
2022-12-05T13:51:30.429Z,38.80
2022-12-05T13:53:42.206Z,37.42
2022-12-05T13:56:00.768Z,34.55
2022-12-05T13:58:26.713Z,38.13
2022-12-05T14:00:37.544Z,35.08
2022-12-05T14:02:54.247Z,37.17
2022-12-05T14:05:02.540Z,33.58
2022-12-05T14:07:13.164Z,32.55
2022-12-05T14:09:32.818Z,35.88
2022-12-05T14:11:37.775Z,34.72
2022-12-05T14:13:46.389Z,30.65
2022-12-05T14:15:53.842Z,29.88
2022-12-05T14:18:18.408Z,32.35
2022-12-05T14:20:32.853Z,32.70
2022-12-05T14:23:15.322Z,31.90
2022-12-05T14:25:35.611Z,26.70
2022-12-05T14:27:51.851Z,29.67
2022-12-05T14:30:06.241Z,27.50
2022-12-05T14:32:26.392Z,29.85
2022-12-05T14:34:34.041Z,29.08
2022-12-05T14:36:40.991Z,27.08
2022-12-05T14:38:48.627Z,24.70
2022-12-05T14:40:53.889Z,23.83
2022-12-05T14:43:03.100Z,22.40
2022-12-05T14:45:30.433Z,24.67
2022-12-05T14:47:37.037Z,21.42
2022-12-05T14:50:04.425Z,21.50
2022-12-05T14:52:14.456Z,19.95
2022-12-05T14:54:23.136Z,19.33
2022-12-05T14:56:30.579Z,19.60
2022-12-05T14:58:43.664Z,19.45
2022-12-05T15:00:56.756Z,16.02
2022-12-05T15:03:02.487Z,19.20
2022-12-05T15:05:24.914Z,19.08
2022-12-05T15:07:37.111Z,20.35
2022-12-05T15:10:00.116Z,20.80
2022-12-05T15:12:10.221Z,20.40
2022-12-05T15:14:26.745Z,20.15
2022-12-05T15:16:36.046Z,17.63
2022-12-05T15:18:46.839Z,17.25
2022-12-05T15:20:58.648Z,17.38
2022-12-05T15:23:03.610Z,14.95
2022-12-05T15:25:32.355Z,16.63
2022-12-05T15:27:37.664Z,16.75
2022-12-05T15:29:44.058Z,17.27
2022-12-05T15:31:52.148Z,15.20
2022-12-05T15:34:01.055Z,15.50
2022-12-05T15:36:07.852Z,16.75
2022-12-05T15:38:27.260Z,13.05
2022-12-05T15:40:40.646Z,13.48
2022-12-05T15:42:47.930Z,12.77
2022-12-05T15:44:53.017Z,10.82
2022-12-05T15:46:59.920Z,13.07
2022-12-05T15:49:23.747Z,14.65
2022-12-05T15:51:37.822Z,12.35
2022-12-05T15:53:48.504Z,10.73
2022-12-05T15:56:01.576Z,14.02
2022-12-05T15:58:13.372Z,12.32
2022-12-05T16:00:22.700Z,11.35
2022-12-05T16:02:39.556Z,13.65
2022-12-05T16:04:50.544Z,13.55
2022-12-05T16:07:00.873Z,11.70
2022-12-05T16:09:11.866Z,11.15
2022-12-05T16:11:21.187Z,14.50
2022-12-05T16:13:29.808Z,11.23
2022-12-05T16:15:35.565Z,10.55
2022-12-05T16:17:45.408Z,8.90
2022-12-05T16:19:51.134Z,11.02
2022-12-05T16:22:05.682Z,10.45
2022-12-05T16:24:20.487Z,11.35
2022-12-05T16:26:28.242Z,11.45
2022-12-05T16:28:36.575Z,11.25
2022-12-05T16:30:42.224Z,11.88
2022-12-05T16:32:49.993Z,10.80
2022-12-05T16:34:55.079Z,8.65
2022-12-05T16:37:00.599Z,11.15
2022-12-05T16:39:09.090Z,9.45
2022-12-05T16:41:15.458Z,10.40
2022-12-05T16:43:43.963Z,10.48
2022-12-05T16:45:51.116Z,10.38
2022-12-05T16:48:01.907Z,13.75
2022-12-05T16:50:32.889Z,10.23
2022-12-05T16:52:37.903Z,12.68
2022-12-05T16:54:43.076Z,12.68
2022-12-05T16:56:48.586Z,12.07
2022-12-05T16:58:56.532Z,12.82
2022-12-05T17:01:07.864Z,11.02
2022-12-05T17:03:33.995Z,12.85
2022-12-05T17:05:40.102Z,13.93
2022-12-05T17:07:45.115Z,14.38
2022-12-05T17:09:50.833Z,16.13
2022-12-05T17:12:04.243Z,15.40
2022-12-05T17:14:16.317Z,12.90
2022-12-05T17:16:23.045Z,12.82
2022-12-05T17:18:31.465Z,13.85
2022-12-05T17:20:39.839Z,11.63
2022-12-05T17:22:45.731Z,14.45
2022-12-05T17:24:50.663Z,14.38
2022-12-05T17:26:55.674Z,12.90
2022-12-05T17:29:00.624Z,12.82
2022-12-05T17:31:08.741Z,13.20
2022-12-05T17:33:16.191Z,12.70
2022-12-05T17:35:23.315Z,16.08
2022-12-05T17:37:28.519Z,14.15
2022-12-05T17:39:33.449Z,13.45
2022-12-05T17:41:38.977Z,14.05
2022-12-05T17:43:44.170Z,14.75
2022-12-05T17:45:49.533Z,14.98
2022-12-05T17:47:57.449Z,16.08
2022-12-05T17:50:02.359Z,14.70
2022-12-05T17:52:23.297Z,12.63
2022-12-05T17:54:28.691Z,18.83
2022-12-05T17:56:33.610Z,14.02
2022-12-05T17:58:38.829Z,14.50
2022-12-05T18:00:45.347Z,15.77
2022-12-05T18:02:50.737Z,15.82
2022-12-05T18:04:58.676Z,14.38
2022-12-05T18:07:03.803Z,16.40
2022-12-05T18:09:09.628Z,17.38
2022-12-05T18:11:16.086Z,13.57
2022-12-05T18:13:21.240Z,16.27
2022-12-05T18:15:26.335Z,15.10
2022-12-05T18:17:31.616Z,14.98
2022-12-05T18:19:37.381Z,16.00
2022-12-05T18:24:10.335Z,15.82
2022-12-05T18:26:15.356Z,14.98
2022-12-05T18:28:20.935Z,16.38
2022-12-05T18:30:25.927Z,15.63
2022-12-05T18:32:31.014Z,18.30
2022-12-05T18:34:36.060Z,17.45
2022-12-05T18:36:41.027Z,18.63
2022-12-05T18:38:53.825Z,19.52
2022-12-05T18:41:02.860Z,21.13
2022-12-05T18:43:07.880Z,18.65
2022-12-05T18:45:14.254Z,20.42
2022-12-05T18:47:20.321Z,20.13
2022-12-05T18:49:25.626Z,21.48
2022-12-05T18:51:30.587Z,19.55
2022-12-05T18:53:35.758Z,19.00
2022-12-05T18:56:13.023Z,20.83
2022-12-05T18:58:08.495Z,19.17
2022-12-05T19:00:16.210Z,18.85
2022-12-05T19:02:24.527Z,23.02
2022-12-05T19:04:31.059Z,17.02
2022-12-05T19:06:39.849Z,17.23
2022-12-05T19:08:45.840Z,21.23
2022-12-05T19:10:53.375Z,17.67
2022-12-05T19:12:58.338Z,19.20
2022-12-05T19:15:03.324Z,22.33
2022-12-05T19:17:08.296Z,21.67
2022-12-05T19:19:17.472Z,18.02
2022-12-05T19:21:22.395Z,20.27
2022-12-05T19:23:28.121Z,21.08
2022-12-05T19:25:33.193Z,20.80
2022-12-05T19:27:40.714Z,21.48
2022-12-05T19:29:45.643Z,22.75
2022-12-05T19:31:50.664Z,22.42
2022-12-05T19:33:58.448Z,22.85
2022-12-05T19:36:10.111Z,22.80
2022-12-05T19:38:15.025Z,25.15
2022-12-05T19:40:20.188Z,21.67
2022-12-05T19:42:25.103Z,25.38
2022-12-05T19:44:32.924Z,20.77
2022-12-05T19:46:39.330Z,22.73
2022-12-05T19:48:45.000Z,21.05
2022-12-05T19:50:57.452Z,23.02
2022-12-05T19:53:02.834Z,21.48
2022-12-05T19:55:08.835Z,20.40
2022-12-05T19:57:14.309Z,26.45
2022-12-05T19:59:20.210Z,24.38
2022-12-05T20:01:30.863Z,27.38
2022-12-05T20:03:35.846Z,32.03
2022-12-05T20:05:40.787Z,28.77
2022-12-05T20:07:45.869Z,28.83
2022-12-05T20:09:50.868Z,27.60
2022-12-05T20:11:56.210Z,21.17
2022-12-05T20:14:03.348Z,21.00
2022-12-05T20:16:12.363Z,35.58
2022-12-05T20:18:19.957Z,22.95
2022-12-05T20:20:24.899Z,24.67
2022-12-05T20:22:31.095Z,28.63
2022-12-05T20:24:36.080Z,28.85
2022-12-05T20:26:43.955Z,22.75
2022-12-05T20:28:49.871Z,25.67
2022-12-05T20:30:54.949Z,28.10
2022-12-05T20:32:59.919Z,23.73
2022-12-05T20:35:08.948Z,22.42
2022-12-05T20:37:13.891Z,23.27
2022-12-05T20:39:20.804Z,24.65
2022-12-05T20:41:25.961Z,24.63
2022-12-05T20:43:31.476Z,24.40
2022-12-05T20:45:37.168Z,26.05
2022-12-05T20:47:42.100Z,20.58
2022-12-05T20:49:48.823Z,20.73
2022-12-05T20:51:57.176Z,22.55
2022-12-05T20:54:05.880Z,22.90
2022-12-05T20:56:14.072Z,23.55
2022-12-05T20:58:19.821Z,22.05
2022-12-05T21:00:25.108Z,20.95
2022-12-05T21:02:30.202Z,21.27
2022-12-05T21:04:39.037Z,20.55
2022-12-05T21:06:46.880Z,21.80
2022-12-05T21:08:55.870Z,21.25
2022-12-05T21:11:00.814Z,25.65
2022-12-05T21:13:06.075Z,27.42
2022-12-05T21:15:13.343Z,29.65
2022-12-05T21:17:18.281Z,29.90
2022-12-05T21:19:23.886Z,29.80
2022-12-05T21:21:34.054Z,28.92
2022-12-05T21:23:39.042Z,29.33
2022-12-05T21:25:47.454Z,29.02
2022-12-05T21:27:52.421Z,29.92
2022-12-05T21:29:58.223Z,28.83
2022-12-05T21:32:03.403Z,29.38
2022-12-05T21:34:11.214Z,32.15
2022-12-05T21:36:16.679Z,33.30
2022-12-05T21:38:22.043Z,32.38
2022-12-05T21:40:27.040Z,33.83
2022-12-05T21:42:35.321Z,31.63
2022-12-05T21:44:40.659Z,32.72
2022-12-05T21:46:45.725Z,35.58
2022-12-05T21:48:51.371Z,37.22
2022-12-05T21:50:57.004Z,34.38
2022-12-05T21:53:02.189Z,37.38
2022-12-05T21:55:08.461Z,37.45
2022-12-05T21:57:13.806Z,40.22
2022-12-05T21:59:21.718Z,34.78
2022-12-05T22:01:30.377Z,29.52
2022-12-05T22:03:35.433Z,31.17
2022-12-05T22:05:40.969Z,31.77
2022-12-05T22:07:46.759Z,28.85
2022-12-05T22:09:51.715Z,28.55
2022-12-05T22:11:57.468Z,32.42
2022-12-05T22:14:02.819Z,29.42
2022-12-05T22:16:11.648Z,31.88
2022-12-05T22:20:23.683Z,31.38
2022-12-05T22:22:28.633Z,28.38
2022-12-05T22:24:33.608Z,30.33
2022-12-05T22:26:38.942Z,28.98
2022-12-05T22:28:44.015Z,28.90
2022-12-05T22:30:50.087Z,24.88
2022-12-05T22:32:59.232Z,31.33
2022-12-05T22:35:04.600Z,27.13
2022-12-05T22:37:10.077Z,34.28
2022-12-05T22:39:15.566Z,30.42
2022-12-05T22:41:23.583Z,31.00
2022-12-05T22:43:30.122Z,28.20
2022-12-05T22:45:35.072Z,35.47
2022-12-05T22:47:40.211Z,29.60
2022-12-05T22:49:48.443Z,29.48
2022-12-05T22:51:53.375Z,32.72
2022-12-05T22:53:59.459Z,29.08
2022-12-05T22:56:07.038Z,31.52
2022-12-05T22:58:12.122Z,31.92
2022-12-05T23:00:18.788Z,29.77
2022-12-05T23:02:24.581Z,28.85
2022-12-05T23:04:30.472Z,32.22
2022-12-05T23:06:39.335Z,31.20
2022-12-05T23:08:49.944Z,27.30
2022-12-05T23:10:59.640Z,31.05
2022-12-05T23:13:05.242Z,31.02
2022-12-05T23:15:13.358Z,29.77
2022-12-05T23:17:18.997Z,31.60
2022-12-05T23:19:24.332Z,31.77
2022-12-05T23:21:32.552Z,27.45
2022-12-05T23:23:41.203Z,31.83
2022-12-05T23:25:46.675Z,30.25
2022-12-05T23:27:52.084Z,29.45
2022-12-05T23:29:58.265Z,31.75
2022-12-05T23:32:03.820Z,29.52
2022-12-05T23:34:10.800Z,30.63
2022-12-05T23:36:16.175Z,31.60
2022-12-05T23:38:21.315Z,32.95
2022-12-05T23:40:29.460Z,29.85
2022-12-05T23:42:34.574Z,28.05
2022-12-05T23:44:40.236Z,32.67
2022-12-05T23:46:45.455Z,27.95
2022-12-05T23:48:51.064Z,28.13
2022-12-05T23:51:02.519Z,25.65
2022-12-05T23:53:07.618Z,25.70
2022-12-05T23:55:13.557Z,25.90
2022-12-05T23:57:21.364Z,25.45
2022-12-05T23:59:27.424Z,24.15
